Terminal Aerodrome Forecast
Issued by NWS

Home | Current Version | Previous Version | Text Only | Print | Product List | Glossary Off
Versions: 1 2 3 4 5 6 7 8 9 10 11 12

000
FTUS43 KGRB 250500
TAFCWA
TAF
KCWA 250525Z 2506/2606 11007KT P6SM SCT035 OVC060
     FM250700 10009KT P6SM SCT040 OVC060
     FM251500 08010G18KT P6SM BKN060
     FM251800 07010G19KT P6SM SCT070
     FM252300 06005KT P6SM SKC
      AMD LTD TO CLD VIS AND WIND TIL 251200=

USA.gov is the U.S. government's official web portal to all federal, state and local government web resources and services.